sensor_id;sensor_type;location;lat;lon;timestamp;P1;durP1;ratioP1;P2;durP2;ratioP2
21274;SDS011;36472;52.170;20.884;2023-02-26T00:01:51;4.53;;;3.40;;
21274;SDS011;36472;52.170;20.884;2023-02-26T00:04:28;5.73;;;3.60;;
21274;SDS011;36472;52.170;20.884;2023-02-26T00:06:57;3.50;;;3.20;;
21274;SDS011;36472;52.170;20.884;2023-02-26T00:09:26;4.28;;;3.40;;
21274;SDS011;36472;52.170;20.884;2023-02-26T00:11:55;3.55;;;3.03;;
21274;SDS011;36472;52.170;20.884;2023-02-26T00:14:27;4.57;;;3.60;;
21274;SDS011;36472;52.170;20.884;2023-02-26T00:17:04;3.33;;;3.03;;
21274;SDS011;36472;52.170;20.884;2023-02-26T00:20:07;3.73;;;3.03;;
21274;SDS011;36472;52.170;20.884;2023-02-26T00:22:39;3.75;;;2.83;;
21274;SDS011;36472;52.170;20.884;2023-02-26T00:25:09;4.13;;;3.03;;
21274;SDS011;36472;52.170;20.884;2023-02-26T00:27:39;4.65;;;3.10;;
21274;SDS011;36472;52.170;20.884;2023-02-26T00:30:11;3.20;;;2.90;;
21274;SDS011;36472;52.170;20.884;2023-02-26T00:32:41;4.32;;;3.10;;
21274;SDS011;36472;52.170;20.884;2023-02-26T00:35:12;3.72;;;3.00;;
21274;SDS011;36472;52.170;20.884;2023-02-26T00:37:53;4.95;;;3.70;;
21274;SDS011;36472;52.170;20.884;2023-02-26T00:40:28;3.88;;;2.85;;
21274;SDS011;36472;52.170;20.884;2023-02-26T00:43:08;3.63;;;2.67;;
21274;SDS011;36472;52.170;20.884;2023-02-26T00:45:46;4.13;;;3.00;;
21274;SDS011;36472;52.170;20.884;2023-02-26T00:48:35;3.30;;;2.80;;
21274;SDS011;36472;52.170;20.884;2023-02-26T00:51:19;3.63;;;3.13;;
21274;SDS011;36472;52.170;20.884;2023-02-26T00:53:59;3.65;;;2.90;;
21274;SDS011;36472;52.170;20.884;2023-02-26T00:56:39;3.78;;;2.47;;
21274;SDS011;36472;52.170;20.884;2023-02-26T00:59:08;3.10;;;2.67;;
21274;SDS011;36472;52.170;20.884;2023-02-26T01:01:38;3.03;;;2.53;;
21274;SDS011;36472;52.170;20.884;2023-02-26T01:04:08;3.47;;;2.70;;
21274;SDS011;36472;52.170;20.884;2023-02-26T01:06:41;3.10;;;2.60;;
21274;SDS011;36472;52.170;20.884;2023-02-26T01:09:16;3.63;;;3.00;;
21274;SDS011;36472;52.170;20.884;2023-02-26T01:11:54;3.00;;;2.70;;
21274;SDS011;36472;52.170;20.884;2023-02-26T01:14:27;4.47;;;3.33;;
21274;SDS011;36472;52.170;20.884;2023-02-26T01:17:01;3.50;;;2.80;;
21274;SDS011;36472;52.170;20.884;2023-02-26T01:19:43;2.95;;;2.60;;
21274;SDS011;36472;52.170;20.884;2023-02-26T01:22:17;3.13;;;2.83;;
21274;SDS011;36472;52.170;20.884;2023-02-26T01:24:51;3.13;;;2.78;;
21274;SDS011;36472;52.170;20.884;2023-02-26T01:27:29;3.30;;;3.00;;
21274;SDS011;36472;52.170;20.884;2023-02-26T01:29:58;3.93;;;2.60;;
21274;SDS011;36472;52.170;20.884;2023-02-26T01:32:32;2.65;;;2.45;;
21274;SDS011;36472;52.170;20.884;2023-02-26T01:35:14;3.50;;;2.67;;
21274;SDS011;36472;52.170;20.884;2023-02-26T01:38:00;3.20;;;2.72;;
21274;SDS011;36472;52.170;20.884;2023-02-26T01:43:58;3.00;;;2.70;;
21274;SDS011;36472;52.170;20.884;2023-02-26T01:46:49;3.20;;;2.90;;
21274;SDS011;36472;52.170;20.884;2023-02-26T01:49:36;4.37;;;3.73;;
21274;SDS011;36472;52.170;20.884;2023-02-26T01:52:06;3.15;;;2.80;;
21274;SDS011;36472;52.170;20.884;2023-02-26T01:55:11;3.70;;;2.83;;
21274;SDS011;36472;52.170;20.884;2023-02-26T01:57:41;3.03;;;2.57;;
21274;SDS011;36472;52.170;20.884;2023-02-26T02:00:11;4.43;;;2.87;;
21274;SDS011;36472;52.170;20.884;2023-02-26T02:02:42;4.03;;;3.20;;
21274;SDS011;36472;52.170;20.884;2023-02-26T02:05:14;5.03;;;3.17;;
21274;SDS011;36472;52.170;20.884;2023-02-26T02:07:49;3.73;;;3.23;;
21274;SDS011;36472;52.170;20.884;2023-02-26T02:10:18;3.92;;;3.50;;
21274;SDS011;36472;52.170;20.884;2023-02-26T02:12:50;4.82;;;3.58;;
21274;SDS011;36472;52.170;20.884;2023-02-26T02:15:32;4.38;;;3.50;;
21274;SDS011;36472;52.170;20.884;2023-02-26T02:18:14;3.37;;;3.07;;
21274;SDS011;36472;52.170;20.884;2023-02-26T02:20:56;4.00;;;3.33;;
21274;SDS011;36472;52.170;20.884;2023-02-26T02:23:56;3.70;;;3.13;;
21274;SDS011;36472;52.170;20.884;2023-02-26T02:26:39;4.53;;;3.70;;
21274;SDS011;36472;52.170;20.884;2023-02-26T02:32:35;3.40;;;3.10;;
21274;SDS011;36472;52.170;20.884;2023-02-26T02:35:11;4.63;;;3.80;;
21274;SDS011;36472;52.170;20.884;2023-02-26T02:37:50;4.10;;;3.13;;
21274;SDS011;36472;52.170;20.884;2023-02-26T02:40:27;3.78;;;3.17;;
21274;SDS011;36472;52.170;20.884;2023-02-26T02:43:03;3.23;;;2.93;;
21274;SDS011;36472;52.170;20.884;2023-02-26T02:45:40;4.40;;;3.10;;
21274;SDS011;36472;52.170;20.884;2023-02-26T02:48:19;3.57;;;3.23;;
21274;SDS011;36472;52.170;20.884;2023-02-26T02:50:54;3.30;;;2.95;;
21274;SDS011;36472;52.170;20.884;2023-02-26T02:53:29;4.75;;;3.30;;
21274;SDS011;36472;52.170;20.884;2023-02-26T02:56:05;3.50;;;3.20;;
21274;SDS011;36472;52.170;20.884;2023-02-26T02:58:45;3.35;;;3.00;;
21274;SDS011;36472;52.170;20.884;2023-02-26T03:01:22;3.37;;;3.00;;
21274;SDS011;36472;52.170;20.884;2023-02-26T03:03:58;3.00;;;2.70;;
21274;SDS011;36472;52.170;20.884;2023-02-26T03:06:32;3.30;;;2.83;;
21274;SDS011;36472;52.170;20.884;2023-02-26T03:09:03;3.23;;;2.90;;
21274;SDS011;36472;52.170;20.884;2023-02-26T03:11:34;3.80;;;3.17;;
21274;SDS011;36472;52.170;20.884;2023-02-26T03:14:04;3.87;;;3.17;;
21274;SDS011;36472;52.170;20.884;2023-02-26T03:19:52;4.07;;;3.13;;
21274;SDS011;36472;52.170;20.884;2023-02-26T03:22:38;3.87;;;3.17;;
21274;SDS011;36472;52.170;20.884;2023-02-26T03:25:23;3.20;;;2.92;;
21274;SDS011;36472;52.170;20.884;2023-02-26T03:28:00;3.13;;;2.78;;
21274;SDS011;36472;52.170;20.884;2023-02-26T03:30:40;3.57;;;2.87;;
21274;SDS011;36472;52.170;20.884;2023-02-26T03:33:17;3.40;;;3.08;;
21274;SDS011;36472;52.170;20.884;2023-02-26T03:35:58;4.22;;;3.30;;
21274;SDS011;36472;52.170;20.884;2023-02-26T03:38:42;4.30;;;3.58;;
21274;SDS011;36472;52.170;20.884;2023-02-26T03:41:22;4.63;;;3.50;;
21274;SDS011;36472;52.170;20.884;2023-02-26T03:43:57;4.25;;;3.70;;
21274;SDS011;36472;52.170;20.884;2023-02-26T03:46:32;3.90;;;3.35;;
21274;SDS011;36472;52.170;20.884;2023-02-26T03:49:08;3.57;;;3.27;;
21274;SDS011;36472;52.170;20.884;2023-02-26T03:51:44;4.20;;;3.50;;
21274;SDS011;36472;52.170;20.884;2023-02-26T03:54:33;3.93;;;3.50;;
21274;SDS011;36472;52.170;20.884;2023-02-26T03:57:27;3.67;;;3.22;;
21274;SDS011;36472;52.170;20.884;2023-02-26T04:00:11;4.60;;;3.70;;
21274;SDS011;36472;52.170;20.884;2023-02-26T04:02:46;4.38;;;3.60;;
21274;SDS011;36472;52.170;20.884;2023-02-26T04:05:26;3.80;;;3.37;;
21274;SDS011;36472;52.170;20.884;2023-02-26T04:08:02;4.00;;;3.50;;
21274;SDS011;36472;52.170;20.884;2023-02-26T04:10:33;5.90;;;3.85;;
21274;SDS011;36472;52.170;20.884;2023-02-26T04:13:09;4.35;;;3.63;;
21274;SDS011;36472;52.170;20.884;2023-02-26T04:15:38;4.23;;;3.53;;
21274;SDS011;36472;52.170;20.884;2023-02-26T04:18:08;4.47;;;3.90;;
21274;SDS011;36472;52.170;20.884;2023-02-26T04:20:36;4.87;;;3.70;;
21274;SDS011;36472;52.170;20.884;2023-02-26T04:23:07;4.47;;;3.73;;
21274;SDS011;36472;52.170;20.884;2023-02-26T04:25:36;4.80;;;3.77;;
21274;SDS011;36472;52.170;20.884;2023-02-26T04:28:06;4.68;;;3.67;;
21274;SDS011;36472;52.170;20.884;2023-02-26T04:30:35;4.20;;;3.50;;
21274;SDS011;36472;52.170;20.884;2023-02-26T04:33:07;4.10;;;3.60;;
21274;SDS011;36472;52.170;20.884;2023-02-26T04:35:36;5.03;;;3.50;;
21274;SDS011;36472;52.170;20.884;2023-02-26T04:38:05;5.27;;;3.90;;
21274;SDS011;36472;52.170;20.884;2023-02-26T04:40:36;4.55;;;3.63;;
21274;SDS011;36472;52.170;20.884;2023-02-26T04:43:07;4.67;;;3.97;;
21274;SDS011;36472;52.170;20.884;2023-02-26T04:45:45;3.90;;;3.47;;
21274;SDS011;36472;52.170;20.884;2023-02-26T04:48:15;5.57;;;4.00;;
21274;SDS011;36472;52.170;20.884;2023-02-26T04:50:45;4.53;;;3.72;;
21274;SDS011;36472;52.170;20.884;2023-02-26T04:53:16;4.57;;;3.37;;
21274;SDS011;36472;52.170;20.884;2023-02-26T04:55:46;4.60;;;3.53;;
21274;SDS011;36472;52.170;20.884;2023-02-26T04:58:18;7.67;;;4.67;;
21274;SDS011;36472;52.170;20.884;2023-02-26T05:00:48;4.60;;;3.70;;
21274;SDS011;36472;52.170;20.884;2023-02-26T05:03:19;4.73;;;3.77;;
21274;SDS011;36472;52.170;20.884;2023-02-26T05:05:48;4.47;;;3.40;;
21274;SDS011;36472;52.170;20.884;2023-02-26T05:08:19;4.03;;;3.60;;
21274;SDS011;36472;52.170;20.884;2023-02-26T05:10:49;7.53;;;5.53;;
21274;SDS011;36472;52.170;20.884;2023-02-26T05:13:19;7.00;;;4.40;;
21274;SDS011;36472;52.170;20.884;2023-02-26T05:15:48;5.23;;;3.60;;
21274;SDS011;36472;52.170;20.884;2023-02-26T05:18:20;3.93;;;3.23;;
21274;SDS011;36472;52.170;20.884;2023-02-26T05:20:51;4.47;;;3.40;;
21274;SDS011;36472;52.170;20.884;2023-02-26T05:23:22;5.83;;;3.33;;
21274;SDS011;36472;52.170;20.884;2023-02-26T05:25:53;5.27;;;3.90;;
21274;SDS011;36472;52.170;20.884;2023-02-26T05:28:24;4.83;;;3.30;;
21274;SDS011;36472;52.170;20.884;2023-02-26T05:30:54;4.87;;;3.17;;
21274;SDS011;36472;52.170;20.884;2023-02-26T05:33:25;5.30;;;3.57;;
21274;SDS011;36472;52.170;20.884;2023-02-26T05:35:54;5.27;;;3.57;;
21274;SDS011;36472;52.170;20.884;2023-02-26T05:38:25;5.80;;;3.83;;
21274;SDS011;36472;52.170;20.884;2023-02-26T05:40:55;4.70;;;3.20;;
21274;SDS011;36472;52.170;20.884;2023-02-26T05:43:25;4.33;;;3.33;;
21274;SDS011;36472;52.170;20.884;2023-02-26T05:45:55;4.73;;;3.43;;
21274;SDS011;36472;52.170;20.884;2023-02-26T05:48:24;4.13;;;2.60;;
21274;SDS011;36472;52.170;20.884;2023-02-26T05:50:53;3.73;;;2.60;;
21274;SDS011;36472;52.170;20.884;2023-02-26T05:53:22;4.93;;;2.57;;
21274;SDS011;36472;52.170;20.884;2023-02-26T05:55:53;4.60;;;2.50;;
21274;SDS011;36472;52.170;20.884;2023-02-26T05:58:22;3.27;;;2.50;;
21274;SDS011;36472;52.170;20.884;2023-02-26T06:00:51;2.77;;;2.33;;
21274;SDS011;36472;52.170;20.884;2023-02-26T06:03:20;2.73;;;2.27;;
21274;SDS011;36472;52.170;20.884;2023-02-26T06:05:49;2.80;;;2.20;;
21274;SDS011;36472;52.170;20.884;2023-02-26T06:08:18;3.03;;;2.27;;
21274;SDS011;36472;52.170;20.884;2023-02-26T06:10:50;3.10;;;2.00;;
21274;SDS011;36472;52.170;20.884;2023-02-26T06:13:19;2.60;;;1.90;;
21274;SDS011;36472;52.170;20.884;2023-02-26T06:15:48;2.33;;;1.90;;
21274;SDS011;36472;52.170;20.884;2023-02-26T06:18:20;2.37;;;1.80;;
21274;SDS011;36472;52.170;20.884;2023-02-26T06:20:48;1.60;;;1.50;;
21274;SDS011;36472;52.170;20.884;2023-02-26T06:23:17;1.90;;;1.53;;
21274;SDS011;36472;52.170;20.884;2023-02-26T06:25:48;1.60;;;1.50;;
21274;SDS011;36472;52.170;20.884;2023-02-26T06:28:20;2.20;;;1.77;;
21274;SDS011;36472;52.170;20.884;2023-02-26T06:30:50;2.70;;;1.80;;
21274;SDS011;36472;52.170;20.884;2023-02-26T06:33:20;2.00;;;1.80;;
21274;SDS011;36472;52.170;20.884;2023-02-26T06:35:49;2.17;;;1.70;;
21274;SDS011;36472;52.170;20.884;2023-02-26T06:38:19;2.77;;;1.50;;
21274;SDS011;36472;52.170;20.884;2023-02-26T06:40:47;3.30;;;2.03;;
21274;SDS011;36472;52.170;20.884;2023-02-26T06:43:18;3.00;;;2.03;;
21274;SDS011;36472;52.170;20.884;2023-02-26T06:45:47;3.70;;;2.50;;
21274;SDS011;36472;52.170;20.884;2023-02-26T06:48:17;2.03;;;1.83;;
21274;SDS011;36472;52.170;20.884;2023-02-26T06:50:46;2.10;;;1.90;;
21274;SDS011;36472;52.170;20.884;2023-02-26T06:53:15;2.63;;;2.10;;
21274;SDS011;36472;52.170;20.884;2023-02-26T06:55:44;2.70;;;2.27;;
21274;SDS011;36472;52.170;20.884;2023-02-26T06:58:16;3.63;;;2.17;;
21274;SDS011;36472;52.170;20.884;2023-02-26T07:00:47;3.53;;;2.57;;
21274;SDS011;36472;52.170;20.884;2023-02-26T07:03:17;4.17;;;2.80;;
21274;SDS011;36472;52.170;20.884;2023-02-26T07:05:46;3.87;;;2.70;;
21274;SDS011;36472;52.170;20.884;2023-02-26T07:08:15;6.57;;;4.07;;
21274;SDS011;36472;52.170;20.884;2023-02-26T07:10:44;6.23;;;3.53;;
21274;SDS011;36472;52.170;20.884;2023-02-26T07:13:15;3.17;;;2.67;;
21274;SDS011;36472;52.170;20.884;2023-02-26T07:15:46;3.77;;;2.90;;
21274;SDS011;36472;52.170;20.884;2023-02-26T07:18:15;3.30;;;2.40;;
21274;SDS011;36472;52.170;20.884;2023-02-26T07:20:44;2.43;;;2.23;;
21274;SDS011;36472;52.170;20.884;2023-02-26T07:23:16;4.17;;;3.50;;
21274;SDS011;36472;52.170;20.884;2023-02-26T07:25:47;5.50;;;3.80;;
21274;SDS011;36472;52.170;20.884;2023-02-26T07:28:17;2.17;;;1.97;;
21274;SDS011;36472;52.170;20.884;2023-02-26T07:30:47;2.53;;;1.80;;
21274;SDS011;36472;52.170;20.884;2023-02-26T07:33:17;2.93;;;2.17;;
21274;SDS011;36472;52.170;20.884;2023-02-26T07:35:46;3.17;;;2.60;;
21274;SDS011;36472;52.170;20.884;2023-02-26T07:38:15;2.63;;;2.20;;
21274;SDS011;36472;52.170;20.884;2023-02-26T07:40:45;3.53;;;2.00;;
21274;SDS011;36472;52.170;20.884;2023-02-26T07:43:14;1.70;;;1.60;;
21274;SDS011;36472;52.170;20.884;2023-02-26T07:45:43;2.77;;;2.20;;
21274;SDS011;36472;52.170;20.884;2023-02-26T07:48:14;2.53;;;2.20;;
21274;SDS011;36472;52.170;20.884;2023-02-26T07:50:43;2.10;;;1.90;;
21274;SDS011;36472;52.170;20.884;2023-02-26T07:53:12;2.33;;;1.90;;
21274;SDS011;36472;52.170;20.884;2023-02-26T07:55:42;2.20;;;1.73;;
21274;SDS011;36472;52.170;20.884;2023-02-26T07:58:11;2.85;;;1.70;;
21274;SDS011;36472;52.170;20.884;2023-02-26T08:00:40;1.90;;;1.80;;
21274;SDS011;36472;52.170;20.884;2023-02-26T08:03:09;2.57;;;2.37;;
21274;SDS011;36472;52.170;20.884;2023-02-26T08:05:40;2.40;;;2.20;;
21274;SDS011;36472;52.170;20.884;2023-02-26T08:08:09;3.13;;;2.30;;
21274;SDS011;36472;52.170;20.884;2023-02-26T08:10:38;3.93;;;3.17;;
21274;SDS011;36472;52.170;20.884;2023-02-26T08:13:08;3.10;;;2.40;;
21274;SDS011;36472;52.170;20.884;2023-02-26T08:15:37;2.95;;;2.50;;
21274;SDS011;36472;52.170;20.884;2023-02-26T08:18:10;4.33;;;2.73;;
21274;SDS011;36472;52.170;20.884;2023-02-26T08:20:40;3.33;;;2.43;;
21274;SDS011;36472;52.170;20.884;2023-02-26T08:23:10;3.43;;;2.00;;
21274;SDS011;36472;52.170;20.884;2023-02-26T08:25:39;4.27;;;2.13;;
21274;SDS011;36472;52.170;20.884;2023-02-26T08:28:08;4.30;;;2.20;;
21274;SDS011;36472;52.170;20.884;2023-02-26T08:30:37;2.90;;;2.27;;
21274;SDS011;36472;52.170;20.884;2023-02-26T08:33:06;2.60;;;2.40;;
21274;SDS011;36472;52.170;20.884;2023-02-26T08:35:35;4.23;;;3.30;;
21274;SDS011;36472;52.170;20.884;2023-02-26T08:38:05;4.47;;;3.00;;
21274;SDS011;36472;52.170;20.884;2023-02-26T08:40:38;3.73;;;2.90;;
21274;SDS011;36472;52.170;20.884;2023-02-26T08:43:08;5.10;;;3.40;;
21274;SDS011;36472;52.170;20.884;2023-02-26T08:45:37;3.75;;;2.50;;
21274;SDS011;36472;52.170;20.884;2023-02-26T08:48:06;3.90;;;2.42;;
21274;SDS011;36472;52.170;20.884;2023-02-26T08:50:36;2.85;;;2.10;;
21274;SDS011;36472;52.170;20.884;2023-02-26T08:53:07;2.00;;;1.80;;
21274;SDS011;36472;52.170;20.884;2023-02-26T08:55:36;2.10;;;1.90;;
21274;SDS011;36472;52.170;20.884;2023-02-26T08:58:05;2.92;;;2.28;;
21274;SDS011;36472;52.170;20.884;2023-02-26T09:00:34;3.67;;;1.98;;
21274;SDS011;36472;52.170;20.884;2023-02-26T09:03:04;2.97;;;2.10;;
21274;SDS011;36472;52.170;20.884;2023-02-26T09:05:33;3.60;;;2.37;;
21274;SDS011;36472;52.170;20.884;2023-02-26T09:08:02;3.10;;;2.10;;
21274;SDS011;36472;52.170;20.884;2023-02-26T09:10:32;2.07;;;1.90;;
21274;SDS011;36472;52.170;20.884;2023-02-26T09:13:02;2.27;;;2.07;;
21274;SDS011;36472;52.170;20.884;2023-02-26T09:15:31;2.67;;;2.30;;
21274;SDS011;36472;52.170;20.884;2023-02-26T09:18:00;2.60;;;2.23;;
21274;SDS011;36472;52.170;20.884;2023-02-26T09:20:29;2.23;;;1.83;;
21274;SDS011;36472;52.170;20.884;2023-02-26T09:22:58;1.73;;;1.50;;
21274;SDS011;36472;52.170;20.884;2023-02-26T09:25:27;2.10;;;1.90;;
21274;SDS011;36472;52.170;20.884;2023-02-26T09:27:57;2.20;;;2.00;;
21274;SDS011;36472;52.170;20.884;2023-02-26T09:30:27;1.90;;;1.60;;
21274;SDS011;36472;52.170;20.884;2023-02-26T09:32:56;2.53;;;2.00;;
21274;SDS011;36472;52.170;20.884;2023-02-26T09:35:25;2.47;;;1.70;;
21274;SDS011;36472;52.170;20.884;2023-02-26T09:37:54;2.72;;;1.70;;
21274;SDS011;36472;52.170;20.884;2023-02-26T09:40:28;2.63;;;2.00;;
21274;SDS011;36472;52.170;20.884;2023-02-26T09:43:18;2.33;;;1.87;;
21274;SDS011;36472;52.170;20.884;2023-02-26T09:46:19;3.10;;;1.70;;
21274;SDS011;36472;52.170;20.884;2023-02-26T09:49:03;2.10;;;1.60;;
21274;SDS011;36472;52.170;20.884;2023-02-26T09:51:48;2.17;;;1.98;;
21274;SDS011;36472;52.170;20.884;2023-02-26T09:54:29;2.20;;;2.00;;
21274;SDS011;36472;52.170;20.884;2023-02-26T09:57:08;2.92;;;2.35;;
21274;SDS011;36472;52.170;20.884;2023-02-26T09:59:48;4.13;;;2.33;;
21274;SDS011;36472;52.170;20.884;2023-02-26T10:02:23;3.30;;;2.42;;
21274;SDS011;36472;52.170;20.884;2023-02-26T10:05:10;4.60;;;2.30;;
21274;SDS011;36472;52.170;20.884;2023-02-26T10:07:51;4.80;;;3.40;;
21274;SDS011;36472;52.170;20.884;2023-02-26T10:10:31;3.10;;;2.75;;
21274;SDS011;36472;52.170;20.884;2023-02-26T10:13:10;2.65;;;2.05;;
21274;SDS011;36472;52.170;20.884;2023-02-26T10:15:54;2.93;;;2.30;;
21274;SDS011;36472;52.170;20.884;2023-02-26T10:18:33;3.10;;;2.30;;
21274;SDS011;36472;52.170;20.884;2023-02-26T10:21:12;3.85;;;2.97;;
21274;SDS011;36472;52.170;20.884;2023-02-26T10:23:49;3.53;;;2.70;;
21274;SDS011;36472;52.170;20.884;2023-02-26T10:26:25;3.72;;;2.58;;
21274;SDS011;36472;52.170;20.884;2023-02-26T10:29:02;5.75;;;2.50;;
21274;SDS011;36472;52.170;20.884;2023-02-26T10:31:54;4.30;;;2.90;;
21274;SDS011;36472;52.170;20.884;2023-02-26T10:34:36;3.70;;;3.00;;
21274;SDS011;36472;52.170;20.884;2023-02-26T10:37:13;3.05;;;2.75;;
21274;SDS011;36472;52.170;20.884;2023-02-26T10:39:47;3.33;;;3.03;;
21274;SDS011;36472;52.170;20.884;2023-02-26T10:42:25;3.80;;;3.03;;
21274;SDS011;36472;52.170;20.884;2023-02-26T10:45:16;6.03;;;3.22;;
21274;SDS011;36472;52.170;20.884;2023-02-26T10:48:06;8.90;;;5.47;;
21274;SDS011;36472;52.170;20.884;2023-02-26T10:50:55;4.37;;;3.13;;
21274;SDS011;36472;52.170;20.884;2023-02-26T10:53:27;4.70;;;3.60;;
21274;SDS011;36472;52.170;20.884;2023-02-26T10:56:00;6.05;;;4.32;;
21274;SDS011;36472;52.170;20.884;2023-02-26T10:58:38;6.33;;;4.57;;
21274;SDS011;36472;52.170;20.884;2023-02-26T11:01:09;5.55;;;3.90;;
21274;SDS011;36472;52.170;20.884;2023-02-26T11:03:47;5.67;;;3.53;;
21274;SDS011;36472;52.170;20.884;2023-02-26T11:06:23;4.30;;;3.22;;
21274;SDS011;36472;52.170;20.884;2023-02-26T11:08:59;3.65;;;3.03;;
21274;SDS011;36472;52.170;20.884;2023-02-26T11:11:35;6.22;;;3.35;;
21274;SDS011;36472;52.170;20.884;2023-02-26T11:14:10;8.25;;;3.38;;
21274;SDS011;36472;52.170;20.884;2023-02-26T11:16:41;4.35;;;3.35;;
21274;SDS011;36472;52.170;20.884;2023-02-26T11:19:16;6.30;;;4.40;;
21274;SDS011;36472;52.170;20.884;2023-02-26T11:21:54;12.20;;;6.93;;
21274;SDS011;36472;52.170;20.884;2023-02-26T11:24:28;5.65;;;4.15;;
21274;SDS011;36472;52.170;20.884;2023-02-26T11:27:05;10.75;;;5.57;;
21274;SDS011;36472;52.170;20.884;2023-02-26T11:29:41;4.53;;;3.10;;
21274;SDS011;36472;52.170;20.884;2023-02-26T11:32:15;4.55;;;3.45;;
21274;SDS011;36472;52.170;20.884;2023-02-26T11:34:48;5.22;;;4.40;;
21274;SDS011;36472;52.170;20.884;2023-02-26T11:37:20;7.10;;;4.38;;
21274;SDS011;36472;52.170;20.884;2023-02-26T11:39:56;7.30;;;5.30;;
21274;SDS011;36472;52.170;20.884;2023-02-26T11:42:33;5.32;;;3.95;;
21274;SDS011;36472;52.170;20.884;2023-02-26T11:45:11;3.25;;;2.65;;
21274;SDS011;36472;52.170;20.884;2023-02-26T11:47:45;4.10;;;3.70;;
21274;SDS011;36472;52.170;20.884;2023-02-26T11:50:19;5.45;;;3.08;;
21274;SDS011;36472;52.170;20.884;2023-02-26T11:52:53;4.30;;;2.92;;
21274;SDS011;36472;52.170;20.884;2023-02-26T11:55:26;5.00;;;3.58;;
21274;SDS011;36472;52.170;20.884;2023-02-26T11:58:00;3.10;;;2.80;;
21274;SDS011;36472;52.170;20.884;2023-02-26T12:00:34;6.30;;;3.53;;
21274;SDS011;36472;52.170;20.884;2023-02-26T12:03:05;4.10;;;2.65;;
21274;SDS011;36472;52.170;20.884;2023-02-26T12:05:44;14.60;;;9.93;;
21274;SDS011;36472;52.170;20.884;2023-02-26T12:08:16;10.07;;;7.32;;
21274;SDS011;36472;52.170;20.884;2023-02-26T12:11:00;5.10;;;4.17;;
21274;SDS011;36472;52.170;20.884;2023-02-26T12:13:49;5.70;;;4.20;;
21274;SDS011;36472;52.170;20.884;2023-02-26T12:16:38;5.97;;;5.07;;
21274;SDS011;36472;52.170;20.884;2023-02-26T12:19:20;4.20;;;3.70;;
21274;SDS011;36472;52.170;20.884;2023-02-26T12:22:16;3.80;;;2.85;;
21274;SDS011;36472;52.170;20.884;2023-02-26T12:25:17;3.53;;;3.17;;
21274;SDS011;36472;52.170;20.884;2023-02-26T12:28:18;4.95;;;4.43;;
21274;SDS011;36472;52.170;20.884;2023-02-26T12:31:21;5.30;;;3.90;;
21274;SDS011;36472;52.170;20.884;2023-02-26T12:34:19;4.72;;;3.85;;
21274;SDS011;36472;52.170;20.884;2023-02-26T12:37:15;5.97;;;4.90;;
21274;SDS011;36472;52.170;20.884;2023-02-26T12:40:04;4.47;;;3.00;;
21274;SDS011;36472;52.170;20.884;2023-02-26T12:42:58;4.43;;;3.08;;
21274;SDS011;36472;52.170;20.884;2023-02-26T12:45:40;3.47;;;2.80;;
21274;SDS011;36472;52.170;20.884;2023-02-26T12:48:35;3.22;;;2.17;;
21274;SDS011;36472;52.170;20.884;2023-02-26T12:51:44;5.28;;;3.30;;
21274;SDS011;36472;52.170;20.884;2023-02-26T12:54:50;5.40;;;3.20;;
21274;SDS011;36472;52.170;20.884;2023-02-26T12:57:45;2.97;;;2.08;;
21274;SDS011;36472;52.170;20.884;2023-02-26T13:00:38;3.63;;;2.35;;
21274;SDS011;36472;52.170;20.884;2023-02-26T13:07:08;3.42;;;2.92;;
21274;SDS011;36472;52.170;20.884;2023-02-26T13:10:20;4.05;;;2.72;;
21274;SDS011;36472;52.170;20.884;2023-02-26T13:13:07;3.58;;;2.00;;
21274;SDS011;36472;52.170;20.884;2023-02-26T13:15:59;2.97;;;2.20;;
21274;SDS011;36472;52.170;20.884;2023-02-26T13:18:48;2.53;;;2.00;;
21274;SDS011;36472;52.170;20.884;2023-02-26T13:21:30;3.35;;;2.17;;
21274;SDS011;36472;52.170;20.884;2023-02-26T13:24:06;3.35;;;2.42;;
21274;SDS011;36472;52.170;20.884;2023-02-26T13:26:43;3.80;;;2.88;;
21274;SDS011;36472;52.170;20.884;2023-02-26T13:29:16;5.28;;;2.20;;
21274;SDS011;36472;52.170;20.884;2023-02-26T13:31:52;6.50;;;2.60;;
21274;SDS011;36472;52.170;20.884;2023-02-26T13:34:32;6.53;;;2.50;;
21274;SDS011;36472;52.170;20.884;2023-02-26T13:37:16;3.05;;;2.00;;
21274;SDS011;36472;52.170;20.884;2023-02-26T13:39:59;4.25;;;2.60;;
21274;SDS011;36472;52.170;20.884;2023-02-26T13:42:50;5.75;;;2.80;;
21274;SDS011;36472;52.170;20.884;2023-02-26T13:45:33;5.20;;;2.70;;
21274;SDS011;36472;52.170;20.884;2023-02-26T13:48:31;4.50;;;2.55;;
21274;SDS011;36472;52.170;20.884;2023-02-26T13:51:20;7.68;;;4.20;;
21274;SDS011;36472;52.170;20.884;2023-02-26T13:54:02;7.38;;;4.95;;
21274;SDS011;36472;52.170;20.884;2023-02-26T13:56:46;5.80;;;4.20;;
21274;SDS011;36472;52.170;20.884;2023-02-26T13:59:36;4.82;;;3.17;;
21274;SDS011;36472;52.170;20.884;2023-02-26T14:02:34;3.50;;;2.63;;
21274;SDS011;36472;52.170;20.884;2023-02-26T14:05:34;6.25;;;3.15;;
21274;SDS011;36472;52.170;20.884;2023-02-26T14:11:26;5.75;;;3.40;;
21274;SDS011;36472;52.170;20.884;2023-02-26T14:14:32;7.30;;;3.83;;
21274;SDS011;36472;52.170;20.884;2023-02-26T14:17:27;5.03;;;2.20;;
21274;SDS011;36472;52.170;20.884;2023-02-26T14:20:15;5.88;;;3.92;;
21274;SDS011;36472;52.170;20.884;2023-02-26T14:23:10;4.35;;;2.72;;
21274;SDS011;36472;52.170;20.884;2023-02-26T14:26:04;3.28;;;1.90;;
21274;SDS011;36472;52.170;20.884;2023-02-26T14:28:44;6.43;;;2.45;;
21274;SDS011;36472;52.170;20.884;2023-02-26T14:31:26;6.78;;;4.32;;
21274;SDS011;36472;52.170;20.884;2023-02-26T14:34:33;11.70;;;6.82;;
21274;SDS011;36472;52.170;20.884;2023-02-26T14:37:11;4.30;;;2.80;;
21274;SDS011;36472;52.170;20.884;2023-02-26T14:39:46;4.45;;;2.78;;
21274;SDS011;36472;52.170;20.884;2023-02-26T14:42:22;7.30;;;4.68;;
21274;SDS011;36472;52.170;20.884;2023-02-26T14:45:06;3.78;;;2.30;;
21274;SDS011;36472;52.170;20.884;2023-02-26T14:47:51;5.22;;;3.33;;
21274;SDS011;36472;52.170;20.884;2023-02-26T14:50:23;10.52;;;6.00;;
21274;SDS011;36472;52.170;20.884;2023-02-26T14:56:16;6.13;;;4.65;;
21274;SDS011;36472;52.170;20.884;2023-02-26T14:59:11;7.13;;;3.83;;
21274;SDS011;36472;52.170;20.884;2023-02-26T15:02:00;6.03;;;2.78;;
21274;SDS011;36472;52.170;20.884;2023-02-26T15:08:11;7.88;;;5.15;;
21274;SDS011;36472;52.170;20.884;2023-02-26T15:11:22;5.47;;;3.42;;
21274;SDS011;36472;52.170;20.884;2023-02-26T15:17:32;6.85;;;3.72;;
21274;SDS011;36472;52.170;20.884;2023-02-26T15:20:19;7.88;;;3.08;;
21274;SDS011;36472;52.170;20.884;2023-02-26T15:23:09;8.80;;;5.63;;
21274;SDS011;36472;52.170;20.884;2023-02-26T15:25:55;5.43;;;3.00;;
21274;SDS011;36472;52.170;20.884;2023-02-26T15:28:26;6.25;;;3.00;;
21274;SDS011;36472;52.170;20.884;2023-02-26T15:31:04;18.17;;;10.00;;
21274;SDS011;36472;52.170;20.884;2023-02-26T15:33:39;13.70;;;7.72;;
21274;SDS011;36472;52.170;20.884;2023-02-26T15:36:11;12.35;;;7.25;;
21274;SDS011;36472;52.170;20.884;2023-02-26T15:38:49;7.57;;;5.40;;
21274;SDS011;36472;52.170;20.884;2023-02-26T15:41:23;6.90;;;5.45;;
21274;SDS011;36472;52.170;20.884;2023-02-26T15:43:56;7.93;;;5.82;;
21274;SDS011;36472;52.170;20.884;2023-02-26T15:46:31;7.07;;;3.67;;
21274;SDS011;36472;52.170;20.884;2023-02-26T15:49:06;13.50;;;10.18;;
21274;SDS011;36472;52.170;20.884;2023-02-26T15:51:39;12.95;;;9.23;;
21274;SDS011;36472;52.170;20.884;2023-02-26T15:54:14;9.40;;;7.30;;
21274;SDS011;36472;52.170;20.884;2023-02-26T15:56:47;5.18;;;3.95;;